Time;durP1;ratioP1;P1;durP2;ratioP2;P2;SDS_P1;SDS_P2;PMS_P1;PMS_P2;Temp;Humidity;BMP_temperature;BMP_pressure;BME280_temperature;BME280_humidity;BME280_pressure;Samples;Min_cycle;Max_cycle;Signal;HPM_P1;HPM_P2
2022/07/10 00:00:36;;;;;;;4.68;2.30;;;19.30;66.00;;;18.23;76.45;96518.66;4951460;28;20065;-67
2022/07/10 00:03:02;;;;;;;3.88;2.47;;;19.20;66.00;;;18.20;76.43;96524.44;4951076;28;20035;-67
2022/07/10 00:05:28;;;;;;;3.60;2.60;;;19.20;65.90;;;18.17;75.86;96524.88;4949625;28;20411;-67
2022/07/10 00:07:53;;;;;;;4.18;2.30;;;19.10;66.10;;;18.14;76.89;96530.66;4949814;28;20042;-67
2022/07/10 00:10:19;;;;;;;3.58;2.72;;;19.10;66.20;;;18.10;77.38;96529.47;4950624;28;20043;-67
2022/07/10 00:12:46;;;;;;;5.90;2.28;;;19.10;66.60;;;18.07;76.46;96527.25;4953269;28;20045;-67
2022/07/10 00:15:12;;;;;;;5.63;2.40;;;19.00;66.70;;;18.03;77.32;96529.56;4940534;28;20562;-67
2022/07/10 00:17:39;;;;;;;4.22;2.42;;;19.00;67.00;;;17.98;77.13;96525.97;4953744;28;20490;-67
2022/07/10 00:20:06;;;;;;;3.95;2.45;;;19.00;66.50;;;17.95;77.14;96518.44;4968811;28;20041;-67
2022/07/10 00:22:34;;;;;;;5.35;2.70;;;18.90;66.20;;;17.92;76.30;96517.03;4950275;28;20042;-67
2022/07/10 00:25:04;;;;;;;6.22;2.63;;;18.90;65.90;;;17.90;76.33;96523.63;4939379;28;20058;-67
2022/07/10 00:27:29;;;;;;;3.45;2.50;;;18.90;65.60;;;17.88;75.95;96536.31;4954634;28;20085;-67
2022/07/10 00:29:56;;;;;;;3.25;2.30;;;18.90;65.70;;;17.85;76.02;96532.25;4947828;28;20126;-67
2022/07/10 00:32:21;;;;;;;2.90;2.20;;;18.90;65.80;;;17.85;76.49;96542.91;4968534;28;20100;-67
2022/07/10 00:34:47;;;;;;;3.38;2.30;;;18.90;65.90;;;17.82;76.60;96547.84;4951862;28;20051;-66
2022/07/10 00:37:13;;;;;;;7.00;2.45;;;18.90;66.20;;;17.78;76.59;96557.31;4955053;28;20050;-67
2022/07/10 00:39:38;;;;;;;6.75;2.58;;;18.80;67.30;;;17.73;77.39;96550.84;4969719;28;20039;-67
2022/07/10 00:42:13;;;;;;;5.90;2.78;;;18.70;68.10;;;17.67;81.17;96546.41;4953214;28;20034;-67
2022/07/10 00:44:39;;;;;;;4.20;3.20;;;18.60;69.60;;;17.60;81.24;96540.31;4938528;28;20592;-67
2022/07/10 00:47:05;;;;;;;4.22;3.05;;;18.60;71.10;;;17.52;81.87;96532.63;4953721;28;20064;-66
2022/07/10 00:49:35;;;;;;;4.28;3.35;;;18.40;71.70;;;17.42;83.69;96527.81;4967880;28;20093;-67
2022/07/10 00:52:03;;;;;;;4.80;3.13;;;18.40;72.00;;;17.37;85.03;96527.66;4950692;28;20057;-67
2022/07/10 00:54:30;;;;;;;4.38;3.30;;;18.30;73.10;;;17.31;84.95;96519.75;4953691;28;20047;-67
2022/07/10 00:56:56;;;;;;;3.78;3.22;;;18.20;73.30;;;17.27;86.37;96524.72;4936813;28;20028;-67
2022/07/10 00:59:22;;;;;;;3.95;3.53;;;18.20;73.70;;;17.23;87.23;96520.06;4951016;28;20039;-67
2022/07/10 01:01:49;;;;;;;7.45;3.30;;;18.20;74.10;;;17.19;87.84;96526.81;4937474;28;20065;-67
2022/07/10 01:04:15;;;;;;;4.20;3.65;;;18.20;74.80;;;17.14;88.86;96525.66;4933678;28;20126;-67
2022/07/10 01:06:40;;;;;;;6.10;3.47;;;18.20;75.00;;;17.10;88.98;96529.78;4953075;28;20038;-66
2022/07/10 01:09:06;;;;;;;4.60;3.90;;;18.10;75.10;;;17.07;89.88;96519.59;4954204;28;20050;-66
2022/07/10 01:11:33;;;;;;;4.55;3.72;;;18.10;75.20;;;17.03;90.44;96514.94;4956260;28;20039;-67
2022/07/10 01:13:58;;;;;;;4.57;3.50;;;18.10;75.30;;;17.00;90.71;96508.22;4954372;28;20041;-67
2022/07/10 01:16:24;;;;;;;4.70;3.75;;;18.10;75.60;;;16.99;91.66;96514.56;4953716;28;20039;-66
2022/07/10 01:18:50;;;;;;;5.47;3.25;;;18.10;75.90;;;16.97;92.52;96505.97;4967461;28;20129;-68
2022/07/10 01:21:29;;;;;;;4.50;3.78;;;18.10;76.20;;;16.98;93.87;96512.13;4953608;28;20447;-67
2022/07/10 01:23:55;;;;;;;4.50;3.70;;;18.00;76.20;;;16.94;92.76;96506.41;4947683;28;20035;-67
2022/07/10 01:26:23;;;;;;;3.90;3.50;;;18.00;76.60;;;16.90;92.81;96507.88;4939997;28;20030;-67
2022/07/10 01:28:52;;;;;;;5.07;4.00;;;17.90;76.40;;;16.86;94.24;96498.72;4951529;28;20066;-67
2022/07/10 01:31:19;;;;;;;6.28;4.00;;;17.90;76.40;;;16.80;93.11;96497.78;4936962;28;20035;-67
2022/07/10 01:33:46;;;;;;;5.90;4.18;;;17.80;76.30;;;16.78;93.58;96496.38;4936667;28;20035;-67
2022/07/10 01:36:12;;;;;;;5.20;4.40;;;17.80;76.80;;;16.77;94.69;96497.41;4953159;28;20093;-67
2022/07/10 01:38:39;;;;;;;4.45;4.05;;;17.90;77.20;;;16.75;94.88;96487.00;4951269;28;20147;-67
2022/07/10 01:41:05;;;;;;;5.15;4.25;;;17.80;77.50;;;16.74;95.90;96476.56;4952702;28;20057;-67
2022/07/10 01:43:30;;;;;;;4.43;4.03;;;17.80;77.80;;;16.72;96.08;96482.09;4950907;28;20117;-67
2022/07/10 01:45:56;;;;;;;8.63;4.30;;;17.80;78.00;;;16.71;97.07;96482.31;4937928;28;20035;-66
2022/07/10 01:48:22;;;;;;;4.35;3.95;;;17.80;78.30;;;16.69;97.57;96479.06;4950761;28;20098;-68
2022/07/10 01:50:47;;;;;;;6.43;4.15;;;17.80;78.20;;;16.68;97.10;96472.94;4936088;28;20046;-67
2022/07/10 01:53:14;;;;;;;4.70;4.28;;;17.80;77.80;;;16.67;96.76;96471.31;4949142;28;20490;-68
2022/07/10 01:55:39;;;;;;;4.38;3.97;;;17.80;77.90;;;16.66;97.41;96475.00;4952260;28;20058;-66
2022/07/10 01:58:05;;;;;;;4.75;4.30;;;17.70;77.80;;;16.64;98.01;96468.25;4934939;28;20043;-66
2022/07/10 02:00:31;;;;;;;4.30;3.90;;;17.70;78.10;;;16.60;97.91;96464.41;4946605;28;20039;-66
2022/07/10 02:05:41;;;;;;;5.03;4.03;;;17.70;78.20;;;16.54;98.24;96472.22;4968623;28;20042;-66
2022/07/10 02:08:07;;;;;;;5.93;4.70;;;17.60;78.30;;;16.51;97.92;96461.19;4953460;28;20058;-67
2022/07/10 02:10:32;;;;;;;5.22;4.40;;;17.60;78.10;;;16.46;97.95;96467.16;4951761;28;20035;-67
2022/07/10 02:12:58;;;;;;;5.28;4.30;;;17.60;78.20;;;16.44;98.29;96461.25;4952624;28;20031;-67
2022/07/10 02:15:24;;;;;;;4.78;4.32;;;17.50;78.50;;;16.39;98.29;96463.75;4951140;28;20035;-66
2022/07/10 02:17:50;;;;;;;6.15;4.70;;;17.50;78.50;;;16.36;98.97;96469.50;4935889;28;20074;-67
2022/07/10 02:20:15;;;;;;;4.57;4.18;;;17.40;78.50;;;16.30;98.64;96465.06;4951176;28;20030;-67
2022/07/10 02:22:42;;;;;;;5.10;4.60;;;17.30;78.70;;;16.25;98.75;96462.22;4948827;28;20410;-66
2022/07/10 02:25:08;;;;;;;5.78;4.13;;;17.30;78.70;;;16.21;98.55;96472.47;4954422;28;20055;-67
2022/07/10 02:27:34;;;;;;;5.00;4.60;;;17.20;79.00;;;16.16;98.92;96472.28;4952327;28;20023;-66
2022/07/10 02:30:00;;;;;;;4.85;4.28;;;17.20;78.90;;;16.10;99.18;96475.81;4954990;28;20031;-67
2022/07/10 02:32:26;;;;;;;8.18;4.30;;;17.10;79.20;;;16.07;100.00;96478.06;4967756;28;20106;-67
2022/07/10 02:34:51;;;;;;;5.28;4.18;;;17.10;79.10;;;16.00;99.46;96474.63;4957030;28;20039;-66
2022/07/10 02:37:17;;;;;;;4.72;4.00;;;17.00;79.50;;;15.95;99.85;96471.81;4970559;28;20150;-67
2022/07/10 02:39:43;;;;;;;6.60;4.05;;;17.00;79.60;;;15.91;100.00;96466.13;4938609;28;20037;-67
2022/07/10 02:42:08;;;;;;;4.90;4.32;;;17.00;79.90;;;15.90;100.00;96470.63;4938896;28;20035;-66
2022/07/10 02:44:34;;;;;;;7.00;4.20;;;17.00;80.10;;;15.88;100.00;96471.88;4938752;28;20058;-67
2022/07/10 02:47:00;;;;;;;6.70;4.55;;;16.90;80.20;;;15.86;100.00;96480.03;4920030;28;20050;-67
2022/07/10 02:49:26;;;;;;;7.00;4.50;;;16.90;80.20;;;15.83;100.00;96475.13;4950245;28;20081;-67
2022/07/10 02:51:52;;;;;;;5.13;4.63;;;16.90;80.20;;;15.82;100.00;96478.00;4952583;28;20063;-67
2022/07/10 02:54:18;;;;;;;4.90;4.40;;;16.90;80.00;;;15.79;100.00;96473.94;4935318;28;20458;-68
2022/07/10 02:56:44;;;;;;;6.07;4.50;;;16.90;80.00;;;15.78;100.00;96476.81;4949601;28;20042;-66
2022/07/10 02:59:09;;;;;;;5.28;4.40;;;16.80;80.20;;;15.76;100.00;96473.56;4968289;28;20117;-67
2022/07/10 03:01:35;;;;;;;4.90;4.47;;;16.80;80.30;;;15.72;100.00;96472.34;4964449;28;20058;-67
2022/07/10 03:04:01;;;;;;;6.60;4.85;;;16.80;80.30;;;15.69;100.00;96476.25;4965001;28;20051;-66
2022/07/10 03:06:27;;;;;;;5.13;4.63;;;16.70;80.30;;;15.64;100.00;96464.66;4967634;28;21047;-67
2022/07/10 03:08:53;;;;;;;5.93;5.05;;;16.70;80.50;;;15.60;100.00;96465.06;4950884;28;20027;-67
2022/07/10 03:11:18;;;;;;;5.13;4.63;;;16.60;80.40;;;15.59;100.00;96467.91;4967886;28;20707;-67
2022/07/10 03:13:44;;;;;;;5.32;4.45;;;16.60;80.60;;;15.56;100.00;96468.31;4969069;28;20146;-66
2022/07/10 03:16:10;;;;;;;5.40;4.70;;;16.60;80.50;;;15.54;100.00;96476.47;4951559;28;20031;-66
2022/07/10 03:18:36;;;;;;;5.13;4.55;;;16.60;80.50;;;15.50;100.00;96469.97;4967754;28;20178;-67
2022/07/10 03:21:01;;;;;;;5.75;4.88;;;16.60;80.60;;;15.47;100.00;96474.88;4968195;28;20355;-66
2022/07/10 03:23:27;;;;;;;10.00;5.20;;;16.60;80.70;;;15.44;100.00;96475.31;4947011;28;20061;-67
2022/07/10 03:25:53;;;;;;;5.13;4.63;;;16.50;80.80;;;15.41;100.00;96475.72;4936200;28;20046;-67
2022/07/10 03:28:18;;;;;;;5.70;5.20;;;16.50;80.90;;;15.39;100.00;96472.44;4950478;28;20109;-67
2022/07/10 03:30:44;;;;;;;6.13;4.95;;;16.40;80.70;;;15.36;100.00;96472.88;4949271;28;20119;-67
2022/07/10 03:33:10;;;;;;;5.03;4.53;;;16.40;80.60;;;15.33;100.00;96474.09;4935981;28;20034;-66
2022/07/10 03:35:36;;;;;;;5.88;4.90;;;16.40;80.50;;;15.28;100.00;96472.09;4949596;28;20615;-67
2022/07/10 03:38:02;;;;;;;5.40;4.90;;;16.30;80.50;;;15.25;100.00;96477.81;4948974;28;20035;-67
2022/07/10 03:40:28;;;;;;;8.50;4.82;;;16.30;80.70;;;15.23;100.00;96469.25;4950784;28;20035;-67
2022/07/10 03:42:53;;;;;;;5.57;5.00;;;16.30;80.60;;;15.21;100.00;96471.31;4949273;28;20049;-68
2022/07/10 03:45:19;;;;;;;6.43;4.85;;;16.30;80.60;;;15.20;100.00;96469.69;4952669;28;20026;-67
2022/07/10 03:47:45;;;;;;;5.20;4.70;;;16.30;80.50;;;15.17;100.00;96459.50;4966612;28;20218;-67
2022/07/10 03:50:11;;;;;;;6.70;5.15;;;16.30;80.60;;;15.15;100.00;96466.81;4951957;28;20093;-68
2022/07/10 03:52:36;;;;;;;5.40;4.90;;;16.20;80.50;;;15.12;100.00;96466.44;4964964;28;20077;-67
2022/07/10 03:55:02;;;;;;;6.93;5.10;;;16.10;80.50;;;15.10;100.00;96471.94;4946316;28;20062;-68
2022/07/10 04:00:13;;;;;;;6.03;5.43;;;16.20;80.50;;;15.09;100.00;96478.25;4965182;28;20033;-67
2022/07/10 04:02:39;;;;;;;7.65;5.05;;;16.20;80.70;;;15.08;100.00;96476.63;4962322;28;20027;-67
2022/07/10 04:05:07;;;;;;;6.13;4.93;;;16.10;80.60;;;15.08;100.00;96471.34;4966764;28;20030;-66
2022/07/10 04:07:34;;;;;;;7.28;5.38;;;16.10;80.50;;;15.07;100.00;96468.88;4939069;28;20024;-66
2022/07/10 04:10:00;;;;;;;6.75;4.93;;;16.20;80.60;;;15.06;100.00;96461.97;4966161;28;20055;-67
2022/07/10 04:12:25;;;;;;;7.60;5.60;;;16.20;80.60;;;15.04;100.00;96464.81;4968734;28;20069;-67
2022/07/10 04:14:51;;;;;;;6.38;5.07;;;16.20;80.50;;;15.00;100.00;96461.78;4966835;28;20073;-66
2022/07/10 04:17:18;;;;;;;7.07;5.45;;;16.10;80.50;;;15.00;100.00;96459.13;4950771;28;20069;-67
2022/07/10 04:19:44;;;;;;;5.70;5.10;;;16.10;80.50;;;15.00;100.00;96463.63;4949201;28;20043;-66
2022/07/10 04:22:10;;;;;;;8.90;5.28;;;16.10;80.60;;;15.00;100.00;96472.38;4946127;28;20102;-67
2022/07/10 04:24:35;;;;;;;5.55;4.97;;;16.30;80.50;;;15.01;100.00;96466.06;4946682;28;20066;-66
2022/07/10 04:27:02;;;;;;;6.10;5.50;;;16.30;80.50;;;15.04;100.00;96475.41;4982555;28;20451;-67
2022/07/10 04:29:27;;;;;;;6.28;4.93;;;16.30;80.40;;;15.06;100.00;96468.09;4966907;28;20039;-66
2022/07/10 04:31:54;;;;;;;6.63;5.90;;;16.40;80.30;;;15.11;100.00;96467.44;4947076;28;20062;-66
2022/07/10 04:34:19;;;;;;;7.68;5.57;;;16.40;80.30;;;15.14;100.00;96480.28;4951769;28;20130;-66
2022/07/10 04:36:45;;;;;;;7.07;5.85;;;16.40;80.00;;;15.18;100.00;96477.03;4961108;28;20038;-66
2022/07/10 04:39:11;;;;;;;5.18;4.13;;;16.60;79.80;;;15.23;100.00;96477.22;4966447;28;20070;-66
2022/07/10 04:41:37;;;;;;;7.32;5.30;;;16.60;79.80;;;15.30;100.00;96479.84;4964668;28;20055;-66
2022/07/10 04:44:03;;;;;;;6.95;5.28;;;16.70;80.20;;;15.35;100.00;96476.53;4966546;28;20421;-66
2022/07/10 04:46:28;;;;;;;7.05;5.43;;;16.70;79.70;;;15.40;100.00;96484.72;4959363;28;20090;-66
2022/07/10 04:48:54;;;;;;;5.93;5.30;;;16.80;79.60;;;15.43;100.00;96479.00;4947705;28;20117;-66
2022/07/10 04:51:20;;;;;;;6.80;5.50;;;16.80;79.40;;;15.49;100.00;96478.13;4965268;28;20062;-67
2022/07/10 04:53:46;;;;;;;7.45;5.30;;;16.80;79.40;;;15.50;100.00;96479.75;4962124;28;20050;-67
2022/07/10 04:56:11;;;;;;;6.43;5.57;;;16.80;79.40;;;15.53;100.00;96489.94;4950447;28;20055;-67
2022/07/10 04:58:37;;;;;;;5.63;5.13;;;16.80;79.40;;;15.58;100.00;96495.41;4963104;28;20028;-66
2022/07/10 05:01:03;;;;;;;6.75;5.65;;;16.90;79.10;;;15.62;100.00;96494.03;4952148;28;20109;-66
2022/07/10 05:03:29;;;;;;;6.80;6.05;;;17.00;78.80;;;15.66;100.00;96497.88;4954506;28;20027;-67
2022/07/10 05:05:54;;;;;;;6.15;5.55;;;17.10;78.80;;;15.72;100.00;96498.88;4952866;28;20379;-66
2022/07/10 05:08:20;;;;;;;5.72;5.22;;;17.10;78.60;;;15.74;100.00;96497.63;4971740;28;20043;-66
2022/07/10 05:10:46;;;;;;;6.57;5.88;;;17.10;78.60;;;15.78;100.00;96504.13;4963243;28;20118;-66
2022/07/10 05:13:12;;;;;;;6.93;6.10;;;17.10;78.50;;;15.78;100.00;96506.78;4952347;28;20091;-67
2022/07/10 05:15:38;;;;;;;7.20;5.40;;;17.10;78.70;;;15.79;100.00;96505.75;4949302;28;20125;-67
2022/07/10 05:18:04;;;;;;;7.55;5.78;;;17.10;78.70;;;15.82;100.00;96510.66;4970395;28;20039;-66
2022/07/10 05:20:30;;;;;;;8.75;6.25;;;17.10;78.80;;;15.86;100.00;96511.06;4951026;28;20594;-67
2022/07/10 05:22:56;;;;;;;7.25;6.13;;;17.10;78.90;;;15.86;100.00;96503.91;4938914;28;20478;-66
2022/07/10 05:25:22;;;;;;;7.57;6.30;;;17.10;78.50;;;15.87;100.00;96510.84;4952913;28;20125;-66
2022/07/10 05:27:47;;;;;;;9.07;6.78;;;17.20;78.30;;;15.90;100.00;96509.59;4938453;28;20043;-66
2022/07/10 05:30:13;;;;;;;7.13;6.53;;;17.20;78.10;;;15.90;100.00;96514.91;4969849;28;20414;-68
2022/07/10 05:32:46;;;;;;;7.55;6.85;;;17.10;78.20;;;15.92;100.00;96513.66;4953277;28;20442;-68
2022/07/10 05:35:13;;;;;;;11.55;8.90;;;17.20;78.40;;;15.95;100.00;96511.63;4950603;28;20035;-68
2022/07/10 05:37:39;;;;;;;13.75;12.18;;;17.30;78.00;;;15.98;100.00;96503.22;4963334;28;20360;-68
2022/07/10 05:40:06;;;;;;;10.15;8.38;;;17.40;78.00;;;16.02;100.00;96504.44;4975354;28;20058;-66
2022/07/10 05:42:31;;;;;;;18.15;15.55;;;17.40;77.60;;;16.07;100.00;96501.94;4969061;28;20035;-66
2022/07/10 05:44:57;;;;;;;12.15;10.52;;;17.60;77.40;;;16.14;100.00;96497.44;4951981;28;20038;-66
2022/07/10 05:47:23;;;;;;;10.13;9.13;;;17.70;77.00;;;16.21;100.00;96503.50;4967275;28;20134;-66
2022/07/10 05:49:49;;;;;;;8.73;7.47;;;17.70;76.50;;;16.31;100.00;96503.84;4950399;28;20043;-67
2022/07/10 05:52:14;;;;;;;7.55;6.72;;;18.00;76.40;;;16.40;100.00;96502.56;4934636;28;20113;-67
2022/07/10 05:54:40;;;;;;;7.70;6.97;;;18.00;75.40;;;16.48;100.00;96512.09;4964486;28;20507;-66
2022/07/10 05:57:06;;;;;;;7.72;6.50;;;18.00;75.30;;;16.54;99.88;96513.91;4952248;28;20039;-66
2022/07/10 05:59:35;;;;;;;10.45;6.70;;;18.10;75.70;;;16.63;100.00;96507.28;4969387;28;20042;-67
2022/07/10 06:02:01;;;;;;;7.57;6.60;;;18.20;75.10;;;16.70;99.13;96507.25;4951228;28;20522;-66
2022/07/10 06:04:27;;;;;;;7.85;6.60;;;18.20;74.40;;;16.73;98.29;96502.31;4969380;28;20042;-66
2022/07/10 06:06:53;;;;;;;7.53;6.82;;;18.10;74.60;;;16.75;97.33;96508.25;4947893;28;20039;-66
2022/07/10 06:09:19;;;;;;;7.32;6.63;;;18.10;74.30;;;16.75;97.67;96507.44;4952338;28;20589;-66
2022/07/10 06:11:46;;;;;;;7.35;6.40;;;18.10;74.30;;;16.75;97.05;96504.78;4963574;28;20121;-66
2022/07/10 06:14:12;;;;;;;6.95;6.20;;;18.10;74.70;;;16.77;96.94;96513.34;4933720;28;20510;-66
2022/07/10 06:16:38;;;;;;;7.10;6.13;;;18.10;74.20;;;16.74;96.57;96513.75;4965365;28;20170;-66
2022/07/10 06:19:03;;;;;;;6.75;6.07;;;18.10;74.30;;;16.72;96.02;96513.16;4948475;28;20426;-66
2022/07/10 06:21:29;;;;;;;8.02;6.20;;;18.10;74.30;;;16.71;95.76;96514.19;4953300;28;20143;-68
2022/07/10 06:23:55;;;;;;;6.65;6.05;;;18.00;74.10;;;16.70;95.13;96507.25;4964441;28;20039;-70
2022/07/10 06:26:21;;;;;;;6.90;6.20;;;18.10;73.90;;;16.71;96.54;96511.53;4944198;28;20070;-67
2022/07/10 06:28:46;;;;;;;10.27;7.88;;;18.10;74.20;;;16.69;96.11;96511.75;4949852;28;20138;-66
2022/07/10 06:31:12;;;;;;;11.88;9.68;;;18.10;74.10;;;16.68;96.42;96504.00;4936582;28;20035;-67
2022/07/10 06:33:38;;;;;;;8.10;7.38;;;18.00;74.80;;;16.68;96.48;96514.63;4966892;28;20039;-67
2022/07/10 06:36:05;;;;;;;8.95;6.25;;;18.10;74.80;;;16.72;96.20;96510.50;4936104;28;20027;-66
2022/07/10 06:38:31;;;;;;;6.28;5.68;;;18.10;74.60;;;16.80;96.47;96512.91;4967850;28;20038;-66
2022/07/10 06:40:57;;;;;;;9.82;5.80;;;18.40;73.90;;;16.89;96.18;96506.25;4959626;28;20678;-65
2022/07/10 06:43:22;;;;;;;5.82;5.20;;;18.50;73.20;;;16.97;95.77;96516.59;4970170;28;20117;-66
2022/07/10 06:45:48;;;;;;;6.07;4.95;;;18.60;72.20;;;17.02;94.96;96515.97;4951682;28;20039;-66
2022/07/10 06:48:14;;;;;;;6.85;4.93;;;18.60;72.00;;;17.05;94.42;96516.34;4967960;28;20117;-66
2022/07/10 06:50:40;;;;;;;7.35;5.10;;;18.60;72.10;;;17.08;93.73;96515.91;4959439;28;20031;-67
2022/07/10 06:53:06;;;;;;;5.95;5.35;;;18.60;71.90;;;17.13;93.47;96507.25;4956879;28;20073;-66
2022/07/10 06:55:32;;;;;;;6.72;5.90;;;18.70;71.90;;;17.20;93.24;96517.81;4947968;28;20039;-66
2022/07/10 06:57:58;;;;;;;10.27;8.35;;;18.80;71.30;;;17.26;92.70;96514.31;4963740;28;20050;-65
2022/07/10 07:00:23;;;;;;;10.88;6.55;;;18.90;71.20;;;17.31;93.50;96514.44;4950489;28;20031;-67
2022/07/10 07:02:49;;;;;;;10.68;7.60;;;18.90;71.30;;;17.30;92.55;96505.66;4949031;28;20548;-65
2022/07/10 07:05:15;;;;;;;6.47;5.20;;;18.90;70.60;;;17.36;91.24;96511.94;4932081;28;20497;-66
2022/07/10 07:07:41;;;;;;;5.82;4.70;;;18.90;69.80;;;17.42;90.80;96511.03;4947268;28;20038;-66
2022/07/10 07:10:07;;;;;;;5.22;4.50;;;19.10;69.40;;;17.53;90.66;96515.63;4948406;28;20039;-68
2022/07/10 07:12:33;;;;;;;5.28;4.65;;;19.40;69.10;;;17.61;90.63;96517.97;4936564;28;20031;-69
2022/07/10 07:14:59;;;;;;;5.50;4.82;;;19.30;69.50;;;17.71;90.38;96523.63;4953074;28;20177;-69
2022/07/10 07:17:33;;;;;;;4.88;4.13;;;19.40;69.10;;;17.80;90.50;96531.31;4951684;28;20106;-68
2022/07/10 07:25:27;;;;;;;5.85;4.47;;;19.50;67.80;;;17.90;87.26;96535.06;4952516;28;20558;-69
2022/07/10 07:27:53;;;;;;;5.85;4.40;;;19.40;67.60;;;18.04;87.80;96538.38;4965374;28;20072;-70
2022/07/10 07:30:19;;;;;;;5.65;3.95;;;20.00;66.20;;;18.20;87.06;96535.06;4965371;28;20154;-68
2022/07/10 07:32:45;;;;;;;4.90;4.40;;;20.30;65.50;;;18.33;86.83;96544.72;4953303;28;20035;-68
2022/07/10 07:35:12;;;;;;;7.55;3.70;;;20.20;64.80;;;18.44;86.38;96545.81;4933038;28;20034;-68
2022/07/10 07:37:39;;;;;;;4.97;3.90;;;20.40;65.40;;;18.54;84.66;96543.38;4964126;28;20442;-67
2022/07/10 07:40:07;;;;;;;6.22;3.53;;;20.40;64.30;;;18.65;84.55;96546.13;4970631;28;20027;-65
2022/07/10 07:42:32;;;;;;;4.80;2.85;;;20.50;64.80;;;18.89;83.52;96543.50;4950571;28;20030;-67
2022/07/10 07:44:58;;;;;;;4.47;2.85;;;21.50;61.20;;;19.10;81.82;96542.13;4957327;28;20190;-67
2022/07/10 07:47:24;;;;;;;3.97;2.58;;;21.30;60.00;;;19.33;79.69;96534.13;4949264;28;20034;-67
2022/07/10 07:49:50;;;;;;;2.63;2.00;;;21.80;58.80;;;19.62;78.33;96534.22;4966485;28;20049;-68
2022/07/10 07:52:15;;;;;;;3.40;1.90;;;21.90;56.50;;;19.79;76.99;96527.09;4944844;28;20090;-68
2022/07/10 07:54:41;;;;;;;5.13;1.83;;;21.80;55.70;;;19.90;75.44;96534.25;4963026;28;20113;-67
2022/07/10 07:57:07;;;;;;;4.15;2.03;;;21.70;56.50;;;19.93;74.61;96549.81;4965021;28;20093;-68
2022/07/10 07:59:33;;;;;;;4.93;2.08;;;21.60;57.20;;;19.84;73.39;96543.22;4946358;28;20074;-67
2022/07/10 08:01:59;;;;;;;5.97;1.80;;;21.20;57.80;;;19.70;73.37;96545.34;4957740;28;20058;-69
2022/07/10 08:04:24;;;;;;;4.05;2.00;;;21.00;58.40;;;19.61;73.41;96540.59;4945621;28;20035;-69
2022/07/10 08:06:52;;;;;;;5.38;2.10;;;20.90;59.20;;;19.57;73.43;96546.41;4964344;28;20098;-69
2022/07/10 08:09:18;;;;;;;6.28;2.40;;;21.10;59.30;;;19.54;73.31;96540.75;4966467;28;20122;-66
2022/07/10 08:11:44;;;;;;;5.10;2.20;;;21.10;58.40;;;19.50;74.41;96550.22;4954495;28;20074;-66
2022/07/10 08:14:10;;;;;;;3.60;2.17;;;21.10;58.70;;;19.58;73.75;96540.03;4950149;28;20035;-66
2022/07/10 08:16:36;;;;;;;7.68;4.30;;;22.00;56.10;;;19.97;73.74;96542.97;4963938;28;20050;-65
2022/07/10 08:19:01;;;;;;;5.93;2.65;;;23.10;54.70;;;20.53;73.52;96544.00;4965628;28;20170;-66
2022/07/10 08:21:27;;;;;;;4.72;2.20;;;24.30;51.40;;;20.98;72.89;96535.94;4950433;28;20191;-66
2022/07/10 08:23:53;;;;;;;4.25;1.80;;;24.00;52.20;;;21.15;70.94;96543.97;4945452;28;20125;-68
2022/07/10 08:26:19;;;;;;;4.93;1.92;;;23.50;51.60;;;21.16;69.23;96542.91;4932418;28;20041;-68
2022/07/10 08:28:45;;;;;;;2.88;1.33;;;23.10;50.60;;;21.05;67.18;96541.16;4960486;28;20042;-69
2022/07/10 08:31:11;;;;;;;4.50;1.60;;;22.80;51.20;;;21.15;66.87;96537.81;4949841;28;20031;-68
2022/07/10 08:33:37;;;;;;;3.90;1.45;;;23.70;49.40;;;21.38;66.32;96533.09;4930834;28;20126;-68
2022/07/10 08:36:04;;;;;;;4.18;1.40;;;24.20;47.80;;;21.81;66.01;96528.03;4967684;28;20094;-68
2022/07/10 08:38:29;;;;;;;4.63;1.50;;;25.10;47.50;;;22.25;64.56;96534.19;4950969;28;20094;-69
2022/07/10 08:40:57;;;;;;;4.72;2.22;;;25.20;45.00;;;22.42;63.15;96537.59;4964780;28;20086;-69
2022/07/10 08:43:24;;;;;;;2.63;1.73;;;24.90;45.50;;;22.68;61.73;96533.28;4938147;28;20126;-67
2022/07/10 08:45:51;;;;;;;6.18;1.48;;;25.10;44.40;;;22.96;60.78;96534.88;4968272;28;20050;-67
2022/07/10 08:48:22;;;;;;;5.07;1.30;;;25.80;43.50;;;23.19;58.59;96545.22;4948833;28;20499;-68
2022/07/10 08:50:48;;;;;;;5.25;1.50;;;25.70;43.40;;;23.35;58.36;96534.59;4950826;28;20047;-66
2022/07/10 08:53:19;;;;;;;4.28;1.48;;;26.00;42.20;;;23.60;55.53;96525.91;4952043;28;20084;-67
2022/07/10 08:55:45;;;;;;;1.90;1.02;;;26.20;41.30;;;23.98;56.17;96522.03;4920799;28;20035;-67
2022/07/10 08:58:11;;;;;;;2.47;1.10;;;26.90;39.70;;;24.10;55.20;96525.31;4969656;28;20061;-68
2022/07/10 09:00:38;;;;;;;3.70;1.38;;;26.00;40.70;;;23.97;54.27;96528.47;4966028;28;20499;-68
2022/07/10 09:03:03;;;;;;;2.58;1.20;;;25.60;41.70;;;23.81;53.99;96524.94;4952831;28;21915;-67
2022/07/10 09:05:29;;;;;;;2.40;1.20;;;25.40;42.70;;;23.85;53.27;96522.53;4970344;28;20174;-67
2022/07/10 09:07:55;;;;;;;2.05;1.15;;;26.10;41.40;;;23.94;52.76;96520.94;4952945;28;20565;-67
2022/07/10 09:10:24;;;;;;;4.40;1.75;;;25.80;40.90;;;23.72;51.17;96516.56;4952369;28;20085;-67
2022/07/10 09:12:54;;;;;;;4.55;1.80;;;25.00;41.80;;;23.70;51.47;96524.06;4948872;28;20031;-69
2022/07/10 09:15:22;;;;;;;2.50;1.13;;;25.80;40.80;;;23.87;52.15;96512.31;4968518;28;20617;-68
2022/07/10 09:18:08;;;;;;;2.65;1.27;;;26.20;39.90;;;24.16;50.13;96507.31;4954234;28;20461;-68
2022/07/10 09:20:35;;;;;;;5.25;1.00;;;26.90;40.00;;;24.52;52.33;96506.34;4952095;28;20528;-71
2022/07/10 09:23:22;;;;;;;3.30;1.23;;;27.50;39.30;;;24.74;49.10;96506.91;4951491;28;20059;-68
2022/07/10 09:25:50;;;;;;;3.40;0.77;;;26.80;39.60;;;24.69;51.31;96508.78;4967575;28;20037;-68
2022/07/10 09:28:21;;;;;;;5.40;1.08;;;26.60;39.60;;;24.74;48.77;96511.47;4952992;28;20031;-70
2022/07/10 09:30:47;;;;;;;4.13;1.23;;;27.30;38.40;;;25.01;50.73;96509.34;4963143;28;20422;-70
2022/07/10 09:33:30;;;;;;;4.38;1.00;;;28.00;38.50;;;25.33;45.76;96500.13;4953442;28;20109;-70
2022/07/10 09:36:09;;;;;;;5.10;2.97;;;27.90;36.00;;;25.22;45.85;96503.94;4966554;28;20597;-74
2022/07/10 09:38:56;;;;;;;3.90;2.05;;;27.20;37.20;;;24.97;45.50;96510.94;4949649;28;20034;-68
2022/07/10 09:41:23;;;;;;;3.85;1.20;;;26.60;37.60;;;25.04;47.74;96505.28;4968136;28;20046;-69
2022/07/10 09:43:57;;;;;;;4.57;1.40;;;27.50;36.70;;;25.11;45.40;96496.94;4948175;28;20114;-69
2022/07/10 09:46:31;;;;;;;3.38;1.30;;;27.10;37.30;;;24.97;45.82;96504.75;4937646;28;20054;-69
2022/07/10 09:49:06;;;;;;;5.43;1.10;;;26.60;38.20;;;24.72;46.14;96497.47;4937268;28;20605;-68
2022/07/10 09:51:34;;;;;;;3.75;1.05;;;26.10;39.40;;;24.45;47.29;96505.00;4949422;28;20109;-70
2022/07/10 09:54:05;;;;;;;4.70;1.67;;;26.30;38.50;;;24.69;45.45;96508.78;4935741;28;20126;-70
2022/07/10 09:56:55;;;;;;;2.50;1.75;;;27.40;36.60;;;24.71;45.60;96501.25;4967355;28;20050;-70
2022/07/10 09:59:21;;;;;;;3.65;1.75;;;26.80;37.70;;;24.55;47.42;96505.00;4984419;28;20426;-71
2022/07/10 10:01:48;;;;;;;3.85;1.50;;;26.60;38.80;;;24.37;46.97;96507.13;4960404;28;20039;-72
2022/07/10 10:04:18;;;;;;;3.38;1.10;;;26.40;38.20;;;24.54;48.13;96506.88;4952464;28;20684;-71
2022/07/10 10:06:46;;;;;;;5.50;1.20;;;27.60;38.20;;;24.96;46.85;96498.53;4958792;28;20420;-71
2022/07/10 10:09:24;;;;;;;4.22;1.38;;;28.20;35.90;;;25.16;45.82;96496.94;4931635;28;20289;-71
2022/07/10 10:11:57;;;;;;;3.17;1.42;;;28.40;36.10;;;25.53;43.32;96502.75;4946427;28;20128;-72
2022/07/10 10:14:23;;;;;;;3.08;1.10;;;28.80;32.60;;;26.04;45.39;96496.41;4952123;28;20517;-70
2022/07/10 10:16:49;;;;;;;3.47;1.50;;;29.80;33.00;;;26.63;44.28;96488.22;4944993;28;20085;-70
2022/07/10 10:21:59;;;;;;;4.07;1.30;;;30.10;32.70;;;26.81;42.59;96486.75;4967655;28;20050;-70
2022/07/10 10:24:25;;;;;;;2.08;0.90;;;28.80;33.80;;;26.83;42.42;96488.06;4935714;28;20035;-70
2022/07/10 10:26:51;;;;;;;2.70;1.00;;;29.10;33.30;;;26.57;41.77;96493.94;4966854;28;20718;-69
2022/07/10 10:29:17;;;;;;;2.10;0.88;;;28.10;33.50;;;26.19;41.98;96497.13;4964204;28;20105;-71